Terminal Aerodrome Forecast
Issued by NWS

Home | Current Version | Previous Version | Text Only | Print | Product List | Glossary On
Versions: 1 2 3 4 5 6 7 8 9 10 11 12 13 14 15 16
000
FTUS46 KMTR 181721
TAFOAK
TAF
KOAK 181721Z 1818/1924 29006KT P6SM SCT010
     FM182100 29012KT P6SM FEW010
     FM190400 29006KT P6SM FEW010
     FM191000 29005KT P6SM BKN008
     FM191600 VRB04KT P6SM SCT009
     FM192100 30011KT P6SM FEW010=

USA.gov is the U.S. government's official web portal to all federal, state and local government web resources and services.